Time;durP1;ratioP1;P1;durP2;ratioP2;P2;SDS_P1;SDS_P2;PMS_P1;PMS_P2;Temp;Humidity;BMP_temperature;BMP_pressure;BME280_temperature;BME280_humidity;BME280_pressure;Samples;Min_cycle;Max_cycle;Signal;HPM_P1;HPM_P2
2022/09/25 00:01:08;;;;;;;19.50;9.88;;;;;;;;;;5048044;28;20056;-87
2022/09/25 00:03:33;;;;;;;16.50;9.60;;;;;;;;;;5033067;28;20049;-86
2022/09/25 00:06:04;;;;;;;18.65;9.13;;;;;;;10.69;100.00;67956.06;5031538;28;20048;-88
2022/09/25 00:08:30;;;;;;;15.60;9.85;;;;;;;10.66;100.00;67952.09;5041049;28;20045;-89
2022/09/25 00:10:55;;;;;;;15.93;9.25;;;;;;;10.57;100.00;67943.00;5054147;28;20040;-89
2022/09/25 00:13:22;;;;;;;15.73;10.27;;;;;;;10.57;100.00;67948.31;5039126;28;20046;-86
2022/09/25 00:15:52;;;;;;;18.52;10.13;;;;;;;10.59;100.00;67944.72;5026218;28;20045;-85
2022/09/25 00:21:03;;;;;;;19.30;10.98;;;;;;;;;;5052511;28;20056;-87
2022/09/25 00:23:28;;;;;;;19.08;10.77;;;;;;;10.55;100.00;67940.16;5050455;28;20044;-89
2022/09/25 00:25:55;;;;;;;18.02;10.65;;;;;;;;;;5049379;28;20090;-86
2022/09/25 00:28:20;;;;;;;18.95;11.40;;;;;;;;;;5066991;28;20259;-87
2022/09/25 00:30:45;;;;;;;20.02;11.25;;;;;;;;;;5055409;28;20075;-85
2022/09/25 00:33:11;;;;;;;17.60;11.73;;;;;;;10.47;100.00;67931.66;5044173;28;20102;-86
2022/09/25 00:35:36;;;;;;;15.88;11.48;;;;;;;;;;5035866;28;20067;-87
2022/09/25 00:38:01;;;;;;;18.23;11.88;;;;;;;;;;5044711;28;20046;-87
2022/09/25 00:40:26;;;;;;;18.98;12.65;;;;;;;10.39;100.00;67930.56;5033516;28;20061;-87
2022/09/25 00:42:52;;;;;;;17.80;11.60;;;;;;;;;;5045689;28;20032;-85
2022/09/25 00:45:21;;;;;;;18.73;11.57;;;;;;;10.33;100.00;67921.09;5057399;28;20028;-85
2022/09/25 00:47:55;;;;;;;18.85;11.90;;;;;;;10.28;100.00;67910.09;5038415;28;20055;-85
2022/09/25 00:50:41;;;;;;;19.48;13.27;;;;;;;10.26;100.00;67913.69;5040854;28;20603;-86
2022/09/25 00:53:21;;;;;;;22.55;12.95;;;;;;;10.19;100.00;67905.19;5054435;28;20097;-88
2022/09/25 00:55:47;;;;;;;20.55;13.88;;;;;;;10.17;100.00;67906.16;5024366;28;20225;-87
2022/09/25 00:58:16;;;;;;;20.35;12.95;;;;;;;10.11;100.00;67891.94;5061568;28;20127;-88
2022/09/25 01:00:41;;;;;;;;;;;;;;;10.10;100.00;67896.13;5058976;28;20045;-86
2022/09/25 01:03:07;;;;;;;20.15;13.70;;;;;;;10.00;100.00;67879.44;5026003;28;19913;-88
2022/09/25 01:05:36;;;;;;;25.65;11.75;;;;;;;10.01;100.00;67880.59;5019344;28;20042;-88
2022/09/25 01:08:06;;;;;;;19.33;12.85;;;;;;;9.99;100.00;67878.31;5035524;28;20049;-86
2022/09/25 01:10:32;;;;;;;22.15;11.00;;;;;;;9.96;100.00;67879.69;5040990;28;20030;-90
2022/09/25 01:12:59;;;;;;;17.50;11.68;;;;;;;9.92;100.00;67870.94;5053810;28;20036;-93
2022/09/25 01:15:30;;;;;;;17.38;10.80;;;;;;;;;;5067021;28;20030;-90
2022/09/25 01:18:07;;;;;;;20.83;10.85;;;;;;;9.92;100.00;67875.69;5049805;28;20037;-90
2022/09/25 01:20:45;;;;;;;17.23;10.95;;;;;;;;;;5049876;28;20041;-91
2022/09/25 01:23:23;;;;;;;18.10;9.52;;;;;;;;;;5060973;28;20114;-89
2022/09/25 01:26:13;;;;;;;16.40;9.80;;;;;;;9.86;100.00;67868.88;5059659;28;20025;-90
2022/09/25 01:28:46;;;;;;;16.40;9.90;;;;;;;9.86;100.00;67864.13;5068518;28;20885;-90
2022/09/25 01:31:31;;;;;;;13.52;8.85;;;;;;;;;;5087482;28;20029;-89
2022/09/25 01:34:14;;;;;;;13.52;9.48;;;;;;;9.84;100.00;67861.88;4989247;28;20064;-87
2022/09/25 01:36:47;;;;;;;16.75;9.27;;;;;;;9.81;100.00;67863.81;5056024;28;20041;-87
2022/09/25 01:39:20;;;;;;;13.32;8.32;;;;;;;9.78;100.00;67854.50;5026784;28;20101;-86
2022/09/25 01:41:56;;;;;;;14.55;8.77;;;;;;;9.79;100.00;67855.66;5017172;28;20046;-87
2022/09/25 01:44:36;;;;;;;18.23;9.20;;;;;;;9.83;100.00;67866.06;5046834;28;20046;-87
2022/09/25 01:47:10;;;;;;;16.40;9.38;;;;;;;9.84;100.00;67861.31;5019169;28;20061;-86
2022/09/25 01:49:38;;;;;;;15.50;8.68;;;;;;;;;;5053017;28;20410;-87
2022/09/25 01:52:06;;;;;;;14.48;9.45;;;;;;;;;;5052848;28;20071;-88
2022/09/25 01:54:43;;;;;;;12.75;9.02;;;;;;;9.74;100.00;67855.28;5045564;28;20033;-86
2022/09/25 01:57:15;;;;;;;14.18;8.38;;;;;;;;;;5073604;28;20145;-86
2022/09/25 01:59:56;;;;;;;16.10;8.45;;;;;;;9.67;100.00;67848.47;5056941;28;20048;-86
2022/09/25 02:02:27;;;;;;;19.70;9.20;;;;;;;9.60;100.00;67835.22;5051802;28;20503;-90
2022/09/25 02:04:55;;;;;;;15.10;8.48;;;;;;;;;;5057133;28;20553;-85
2022/09/25 02:07:23;;;;;;;15.20;8.75;;;;;;;;;;5057389;28;20036;-88
2022/09/25 02:09:51;;;;;;;16.10;8.90;;;;;;;;;;5057036;28;20049;-86
2022/09/25 02:12:32;;;;;;;18.08;9.20;;;;;;;;;;5054311;28;20041;-86
2022/09/25 02:15:02;;;;;;;13.52;8.65;;;;;;;9.50;100.00;67831.88;5049987;28;20080;-87
2022/09/25 02:20:33;;;;;;;15.90;8.55;;;;;;;9.49;100.00;67828.66;5059466;28;20477;-87
2022/09/25 02:23:12;;;;;;;14.48;7.70;;;;;;;9.51;100.00;67830.34;5045155;28;20109;-87
2022/09/25 02:25:43;;;;;;;18.20;8.38;;;;;;;9.48;100.00;67826.94;5058916;28;20415;-87
2022/09/25 02:28:08;;;;;;;14.85;7.47;;;;;;;9.47;100.00;67821.06;5063988;28;20113;-86
2022/09/25 02:30:34;;;;;;;14.80;7.90;;;;;;;;;;5059678;28;20063;-88
2022/09/25 02:32:59;;;;;;;14.70;7.40;;;;;;;;;;5055968;28;20041;-86
2022/09/25 02:35:25;;;;;;;14.73;7.45;;;;;;;9.46;100.00;67825.22;5041636;28;20049;-87
2022/09/25 02:37:51;;;;;;;11.80;7.10;;;;;;;;;;5024607;28;20041;-87
2022/09/25 02:40:18;;;;;;;15.57;7.15;;;;;;;9.43;100.00;67815.94;5048152;28;20040;-87
2022/09/25 02:43:02;;;;;;;15.55;8.23;;;;;;;9.41;100.00;67819.00;5055447;28;20041;-88
2022/09/25 02:45:48;;;;;;;17.23;8.02;;;;;;;;;;5058021;28;20519;-86
2022/09/25 02:48:22;;;;;;;14.93;7.57;;;;;;;;;;5061022;28;20044;-86
2022/09/25 02:51:01;;;;;;;12.93;7.47;;;;;;;9.41;100.00;67819.00;5044991;28;20047;-87
2022/09/25 02:53:52;;;;;;;;;;;;;;;9.41;100.00;67819.00;5058701;28;20043;-87
2022/09/25 02:56:41;;;;;;;13.10;7.85;;;;;;;9.30;100.00;67806.53;5052139;28;20345;-86
2022/09/25 02:59:14;;;;;;;14.98;7.65;;;;;;;9.29;100.00;67805.94;5029872;28;20393;-87
2022/09/25 03:01:41;;;;;;;15.70;7.80;;;;;;;9.29;100.00;67800.06;5056885;28;20064;-87
2022/09/25 03:04:08;;;;;;;11.73;7.22;;;;;;;;;;5058339;28;20037;-86
2022/09/25 03:06:33;;;;;;;11.93;7.10;;;;;;;9.26;100.00;67797.25;5055368;28;20060;-86
2022/09/25 03:08:59;;;;;;;15.00;7.90;;;;;;;9.26;100.00;67803.13;5053596;28;20037;-87
2022/09/25 03:11:25;;;;;;;13.77;7.93;;;;;;;;;;5044846;28;20072;-87
2022/09/25 03:13:55;;;;;;;12.75;7.47;;;;;;;;;;5043370;28;20113;-87
2022/09/25 03:16:50;;;;;;;16.20;7.90;;;;;;;9.22;100.00;67798.59;5053857;28;20488;-86
2022/09/25 03:19:18;;;;;;;12.27;7.20;;;;;;;;;;5052940;28;20443;-88
2022/09/25 03:21:44;;;;;;;16.43;7.20;;;;;;;9.17;100.00;67795.00;5045577;28;20041;-87
2022/09/25 03:24:10;;;;;;;17.13;7.75;;;;;;;9.17;100.00;67792.34;5036678;28;20136;-87
2022/09/25 03:26:35;;;;;;;16.48;7.70;;;;;;;9.15;100.00;67790.66;5039005;28;20052;-87
2022/09/25 03:29:01;;;;;;;20.40;7.05;;;;;;;9.15;100.00;67785.34;5038388;28;20409;-87
2022/09/25 03:31:28;;;;;;;14.50;7.55;;;;;;;9.10;100.00;67784.44;5036777;28;20046;-87
2022/09/25 03:33:53;;;;;;;14.55;7.68;;;;;;;9.08;100.00;67776.84;5037849;28;20072;-88
2022/09/25 03:36:22;;;;;;;16.38;8.38;;;;;;;9.06;100.00;67780.44;5038984;28;20037;-87
2022/09/25 03:38:49;;;;;;;;;;;;;;;8.99;100.00;67773.09;5054864;28;20045;-86
2022/09/25 03:41:19;;;;;;;10.98;7.07;;;;;;;;;;5058920;28;19913;-87
2022/09/25 03:43:47;;;;;;;17.02;7.68;;;;;;;8.92;100.00;67759.84;5053543;28;20041;-87
2022/09/25 03:46:14;;;;;;;15.10;8.18;;;;;;;8.92;100.00;67765.16;5058879;28;20052;-87
2022/09/25 03:48:39;;;;;;;16.10;7.47;;;;;;;;;;5055362;28;20492;-87
2022/09/25 03:51:05;;;;;;;13.52;7.68;;;;;;;8.92;100.00;67764.59;5068339;22;20064;-81
2022/09/25 03:53:32;;;;;;;16.05;7.65;;;;;;;;;;5055405;28;20068;-82
2022/09/25 03:55:58;;;;;;;16.70;8.20;;;;;;;8.89;100.00;67755.88;5056440;28;20063;-82
2022/09/25 03:58:23;;;;;;;16.45;8.38;;;;;;;;;;5056357;28;20053;-81
2022/09/25 04:00:49;;;;;;;16.52;8.00;;;;;;;8.85;100.00;67756.66;5075160;28;20068;-82
2022/09/25 04:03:14;;;;;;;14.43;6.75;;;;;;;8.78;100.00;67749.88;5058031;28;20029;-81
2022/09/25 04:05:41;;;;;;;14.65;7.68;;;;;;;8.81;100.00;67752.69;5060895;28;20029;-81
2022/09/25 04:08:06;;;;;;;16.20;8.57;;;;;;;8.77;100.00;67742.84;5062822;28;20120;-82
2022/09/25 04:10:37;;;;;;;12.98;7.55;;;;;;;8.72;100.00;67743.06;5070943;28;20118;-82
2022/09/25 04:13:03;;;;;;;12.43;6.57;;;;;;;;;;5067480;28;20047;-82
2022/09/25 04:15:28;;;;;;;11.75;6.68;;;;;;;;;;5076896;28;20056;-82
2022/09/25 04:17:54;;;;;;;13.90;7.43;;;;;;;8.64;100.00;67728.69;5057777;28;20500;-83
2022/09/25 04:20:19;;;;;;;13.00;7.53;;;;;;;;;;5056966;28;20124;-82
2022/09/25 04:22:44;;;;;;;15.27;7.45;;;;;;;8.58;100.00;67727.22;5067699;28;20051;-83
2022/09/25 04:25:10;;;;;;;19.10;8.43;;;;;;;;;;5062472;28;20044;-82
2022/09/25 04:27:35;;;;;;;14.23;7.82;;;;;;;8.55;100.00;67723.81;5058042;28;20045;-81
2022/09/25 04:30:03;;;;;;;14.90;8.27;;;;;;;8.51;100.00;67719.25;5069206;28;20093;-81
2022/09/25 04:35:12;;;;;;;13.93;7.72;;;;;;;;;;5078313;28;20063;-82
2022/09/25 04:37:37;;;;;;;17.90;8.35;;;;;;;8.39;100.00;67700.38;5070231;28;20443;-82
2022/09/25 04:40:03;;;;;;;16.80;7.95;;;;;;;8.40;100.00;67707.38;5069617;28;20051;-82
2022/09/25 04:42:29;;;;;;;15.13;8.38;;;;;;;8.34;100.00;67695.84;5070150;28;20045;-82
2022/09/25 04:44:55;;;;;;;12.60;6.60;;;;;;;;;;5057278;28;20789;-81
2022/09/25 04:47:25;;;;;;;14.23;7.43;;;;;;;8.30;100.00;67696.59;5057819;28;20495;-81
2022/09/25 04:49:51;;;;;;;16.17;8.27;;;;;;;8.31;100.00;67697.16;5078776;28;20135;-82
2022/09/25 04:52:18;;;;;;;16.33;7.90;;;;;;;8.33;100.00;67700.00;5057918;28;20060;-82
2022/09/25 04:54:44;;;;;;;13.70;8.23;;;;;;;8.31;100.00;67692.41;5060441;28;20120;-82
2022/09/25 04:57:13;;;;;;;17.05;7.95;;;;;;;;;;5070348;28;20072;-81
2022/09/25 04:59:38;;;;;;;13.57;7.10;;;;;;;;;;5067564;28;20052;-82
2022/09/25 05:02:04;;;;;;;12.93;7.75;;;;;;;8.23;100.00;67688.09;5068232;28;20558;-82
2022/09/25 05:04:29;;;;;;;12.88;7.57;;;;;;;8.21;100.00;67686.41;5070410;28;20490;-82
2022/09/25 05:06:55;;;;;;;14.52;7.72;;;;;;;;;;5056851;28;20068;-83
2022/09/25 05:09:20;;;;;;;10.98;7.22;;;;;;;;;;5051616;28;20148;-82
2022/09/25 05:11:46;;;;;;;13.68;7.95;;;;;;;8.09;100.00;67673.38;5053438;28;20998;-82
2022/09/25 05:14:11;;;;;;;15.52;7.28;;;;;;;8.06;100.00;67669.97;5057031;28;20037;-81
2022/09/25 05:16:37;;;;;;;12.25;8.02;;;;;;;8.10;100.00;67668.63;5055985;28;20068;-82
2022/09/25 05:19:02;;;;;;;14.15;7.38;;;;;;;8.00;100.00;67662.59;5063064;28;20045;-82
2022/09/25 05:21:27;;;;;;;10.82;7.07;;;;;;;7.89;100.00;67650.72;5053885;28;20045;-81
2022/09/25 05:23:54;;;;;;;17.13;8.25;;;;;;;7.82;100.00;67643.34;5066133;28;20045;-81
2022/09/25 05:26:22;;;;;;;17.10;7.90;;;;;;;7.84;100.00;67645.63;5055261;28;20045;-82
2022/09/25 05:28:49;;;;;;;11.55;6.90;;;;;;;7.83;100.00;67644.50;5049724;28;20045;-82
2022/09/25 05:31:15;;;;;;;12.25;7.25;;;;;;;;;;5048375;28;20033;-82
2022/09/25 05:33:42;;;;;;;13.75;6.88;;;;;;;;;;5067215;28;20517;-82
2022/09/25 05:36:08;;;;;;;13.25;7.38;;;;;;;7.61;100.00;67619.59;5068629;28;20071;-82
2022/09/25 05:38:34;;;;;;;13.02;6.95;;;;;;;;;;5056872;28;20032;-83
2022/09/25 05:41:02;;;;;;;11.35;7.30;;;;;;;;;;5054519;28;20709;-81
2022/09/25 05:43:27;;;;;;;12.45;7.95;;;;;;;7.41;100.00;67598.09;5063774;28;20044;-82
2022/09/25 05:45:54;;;;;;;15.05;7.30;;;;;;;7.41;100.00;67598.09;5069893;28;20037;-82
2022/09/25 05:48:19;;;;;;;11.60;7.68;;;;;;;7.37;100.00;67587.72;5069809;28;20037;-82
2022/09/25 05:50:50;;;;;;;13.65;7.93;;;;;;;7.35;100.00;67591.31;5060421;28;20446;-81
2022/09/25 05:53:15;;;;;;;13.40;7.65;;;;;;;7.38;100.00;67594.13;5060889;28;20048;-82
2022/09/25 05:55:41;;;;;;;14.27;7.70;;;;;;;7.34;100.00;67590.19;5053987;28;20404;-83
2022/09/25 05:58:06;;;;;;;15.77;7.75;;;;;;;7.34;100.00;67582.22;5058801;28;20037;-81
2022/09/25 06:00:32;;;;;;;15.30;8.35;;;;;;;7.36;100.00;67592.41;5059649;28;20041;-82
2022/09/25 06:02:57;;;;;;;13.38;9.15;;;;;;;;;;5059303;28;20072;-83
2022/09/25 06:05:23;;;;;;;11.70;8.00;;;;;;;7.58;100.00;67616.19;5068522;28;20041;-81
2022/09/25 06:07:53;;;;;;;15.73;8.63;;;;;;;7.67;100.00;67626.38;5057977;28;20052;-82
2022/09/25 06:10:18;;;;;;;14.55;8.90;;;;;;;;;;5062725;28;20089;-82
2022/09/25 06:12:43;;;;;;;14.70;8.52;;;;;;;;;;5066328;28;20607;-82
2022/09/25 06:15:09;;;;;;;15.55;8.40;;;;;;;;;;5074902;28;20040;-82
2022/09/25 06:17:34;;;;;;;14.82;8.50;;;;;;;7.91;100.00;67648.28;5065926;28;20041;-82
2022/09/25 06:20:00;;;;;;;17.27;7.97;;;;;;;7.91;100.00;67648.28;5063209;28;20052;-82
2022/09/25 06:22:25;;;;;;;17.20;9.55;;;;;;;7.96;100.00;67658.09;5063101;28;20040;-83
2022/09/25 06:24:50;;;;;;;16.33;9.23;;;;;;;;;;5054227;28;20048;-81
2022/09/25 06:27:16;;;;;;;13.65;9.55;;;;;;;;;;5061401;28;20403;-83
2022/09/25 06:29:41;;;;;;;14.02;8.52;;;;;;;8.14;100.00;67673.75;5057464;28;20124;-82
2022/09/25 06:32:06;;;;;;;15.75;10.00;;;;;;;8.20;100.00;67685.28;5053607;28;20048;-82
2022/09/25 06:34:31;;;;;;;15.65;8.85;;;;;;;8.21;100.00;67681.09;5054046;28;20060;-82
2022/09/25 06:36:59;;;;;;;16.45;9.13;;;;;;;8.26;100.00;67692.06;5061943;28;20049;-82
2022/09/25 06:39:24;;;;;;;14.68;9.05;;;;;;;;;;5074232;28;20044;-82
2022/09/25 06:41:52;;;;;;;13.98;7.65;;;;;;;8.42;100.00;67703.78;5057602;28;20056;-82
2022/09/25 06:44:17;;;;;;;12.00;8.25;;;;;;;8.45;100.00;67707.16;5051716;28;20511;-82
2022/09/25 06:46:43;;;;;;;13.57;7.70;;;;;;;8.51;100.00;67711.88;5052121;28;20051;-83
2022/09/25 06:49:12;;;;;;;14.50;8.02;;;;;;;8.59;100.00;67723.03;5049278;28;20045;-81
2022/09/25 06:51:38;;;;;;;14.75;7.35;;;;;;;8.61;100.00;67725.28;5048941;28;20041;-83
2022/09/25 06:54:03;;;;;;;14.75;7.63;;;;;;;8.72;100.00;67743.06;5056678;28;20037;-83
2022/09/25 06:56:28;;;;;;;13.60;7.82;;;;;;;;;;5054858;28;20098;-83
2022/09/25 06:58:55;;;;;;;12.35;6.93;;;;;;;8.84;100.00;67758.19;5055710;28;20511;-82
2022/09/25 07:01:20;;;;;;;14.63;6.60;;;;;;;;;;5055519;28;20040;-82
2022/09/25 07:03:46;;;;;;;12.25;6.90;;;;;;;8.97;100.00;67770.81;5055011;28;20037;-83
2022/09/25 07:06:16;;;;;;;14.52;6.40;;;;;;;9.05;100.00;67774.00;5051387;28;20041;-83
2022/09/25 07:08:46;;;;;;;13.80;7.20;;;;;;;9.14;100.00;67784.22;5053450;28;20408;-82
2022/09/25 07:11:14;;;;;;;10.25;6.00;;;;;;;9.18;100.00;67794.06;5054132;28;20044;-83
2022/09/25 07:13:41;;;;;;;14.48;6.53;;;;;;;9.18;100.00;67796.72;5050699;28;20040;-83
2022/09/25 07:16:07;;;;;;;10.93;6.10;;;;;;;;;;5047318;28;20038;-83
2022/09/25 07:18:33;;;;;;;12.13;5.93;;;;;;;9.31;100.00;67808.22;5055987;28;20048;-83
2022/09/25 07:21:01;;;;;;;9.30;6.10;;;;;;;9.40;100.00;67817.88;5049868;28;20128;-83
2022/09/25 07:23:27;;;;;;;9.00;6.53;;;;;;;9.48;100.00;67821.63;5040932;28;20037;-83
2022/09/25 07:25:53;;;;;;;10.40;5.85;;;;;;;;;;5052425;28;20048;-82
2022/09/25 07:28:18;;;;;;;12.23;5.90;;;;;;;;;;5052956;28;20048;-83
2022/09/25 07:30:45;;;;;;;11.88;6.65;;;;;;;9.67;100.00;67843.16;5049649;28;20075;-83
2022/09/25 07:33:11;;;;;;;12.20;6.07;;;;;;;9.74;100.00;67849.97;5046062;28;20381;-82
2022/09/25 07:35:36;;;;;;;10.48;5.85;;;;;;;;;;5053696;28;20044;-83
2022/09/25 07:38:02;;;;;;;10.20;5.13;;;;;;;;;;5038565;28;20045;-83
2022/09/25 07:40:30;;;;;;;12.88;5.07;;;;;;;10.01;100.00;67880.00;5054043;28;20110;-82
2022/09/25 07:42:59;;;;;;;12.18;5.68;;;;;;;10.16;100.00;67902.38;5053262;28;20567;-83
2022/09/25 07:45:24;;;;;;;7.60;4.10;;;;;;;10.23;100.00;67909.72;5053501;28;20075;-83
2022/09/25 07:47:54;;;;;;;9.50;4.70;;;;;;;10.35;100.00;67918.59;5047511;28;20303;-82
2022/09/25 07:50:19;;;;;;;;;;;;;;;10.46;100.00;67927.31;5043239;28;20048;-83
2022/09/25 07:52:44;;;;;;;8.38;4.82;;;;;;;10.50;100.00;67932.41;5065538;28;19917;-83
2022/09/25 07:55:09;;;;;;;8.45;4.50;;;;;;;;;;5052230;28;20049;-83
2022/09/25 07:57:35;;;;;;;10.40;4.15;;;;;;;10.68;100.00;67959.69;5040426;28;20155;-83
2022/09/25 08:00:00;;;;;;;9.80;4.25;;;;;;;;;;5046180;28;20408;-83
2022/09/25 08:02:25;;;;;;;7.85;3.78;;;;;;;;;;5066228;28;20056;-84
2022/09/25 08:04:51;;;;;;;12.60;4.47;;;;;;;10.84;100.00;67972.50;5049465;28;20036;-83
2022/09/25 08:07:16;;;;;;;10.23;3.60;;;;;;;10.89;100.00;67978.19;5040926;28;20038;-84
2022/09/25 08:09:42;;;;;;;10.95;3.72;;;;;;;11.03;100.00;67994.06;5039467;28;20040;-83
2022/09/25 08:12:09;;;;;;;10.05;4.07;;;;;;;;;;5047931;28;20041;-82
2022/09/25 08:14:35;;;;;;;8.48;3.83;;;;;;;11.28;100.00;68021.34;5038190;28;20045;-83
2022/09/25 08:17:00;;;;;;;8.82;3.85;;;;;;;11.36;100.00;68030.41;5031400;28;20048;-85
2022/09/25 08:19:26;;;;;;;9.70;3.88;;;;;;;;;;5045496;28;20519;-84
2022/09/25 08:21:52;;;;;;;8.13;3.85;;;;;;;11.43;100.00;68035.13;5051513;28;20037;-84
2022/09/25 08:24:17;;;;;;;7.05;3.47;;;;;;;11.46;100.00;68047.09;5052898;28;20043;-84
2022/09/25 08:26:42;;;;;;;10.52;3.92;;;;;;;;;;5053151;28;20033;-84
2022/09/25 08:29:08;;;;;;;7.57;3.27;;;;;;;;;;5050214;28;20392;-83
2022/09/25 08:31:33;;;;;;;7.82;3.30;;;;;;;11.87;100.00;68086.66;5048412;28;20567;-84
2022/09/25 08:33:59;;;;;;;6.38;2.75;;;;;;;;;;5049055;28;20044;-84
2022/09/25 08:36:24;;;;;;;7.47;3.28;;;;;;;11.84;100.00;68083.78;5049653;28;20049;-84
2022/09/25 08:38:57;;;;;;;6.10;2.95;;;;;;;11.96;100.00;68096.88;5046496;28;20094;-86
2022/09/25 08:41:28;;;;;;;6.40;2.95;;;;;;;12.07;100.00;68114.13;5023987;28;20038;-86
2022/09/25 08:44:03;;;;;;;7.30;2.47;;;;;;;;;;4988134;28;20121;-85
2022/09/25 08:49:44;;;;;;;7.07;2.95;;;;;;;12.30;100.00;68134.94;4998773;28;20041;-84
2022/09/25 08:52:15;;;;;;;5.10;2.13;;;;;;;12.42;100.00;68153.91;4994167;28;20051;-84
2022/09/25 08:54:41;;;;;;;10.90;2.60;;;;;;;12.51;99.99;68157.66;4994538;28;20050;-84
2022/09/25 08:57:23;;;;;;;5.65;2.35;;;;;;;12.63;98.40;68171.31;4990234;28;20659;-84
2022/09/25 08:59:51;;;;;;;9.68;2.70;;;;;;;;;;4989444;28;20130;-84
2022/09/25 09:02:23;;;;;;;9.13;2.53;;;;;;;12.82;97.57;68192.34;4986169;28;20069;-83
2022/09/25 09:04:55;;;;;;;7.90;2.38;;;;;;;13.03;97.76;68216.22;4979807;28;20102;-84
2022/09/25 09:07:30;;;;;;;5.93;2.83;;;;;;;12.99;95.59;68211.66;4978084;28;20041;-85
2022/09/25 09:10:24;;;;;;;7.78;2.33;;;;;;;13.06;94.99;68213.69;4993261;28;20042;-84
2022/09/25 09:12:53;;;;;;;5.05;1.60;;;;;;;;;;5008935;28;20046;-84
2022/09/25 09:15:18;;;;;;;;;;;;;;;;;;5064669;28;20041;-84
2022/09/25 09:17:43;;;;;;;6.30;1.70;;;;;;;;;;5051254;28;19974;-83
2022/09/25 09:20:18;;;;;;;4.85;1.30;;;;;;;13.17;92.98;68228.31;5051599;28;20107;-84
2022/09/25 09:22:51;;;;;;;4.03;1.58;;;;;;;13.32;91.69;68248.06;5057592;28;20199;-83
2022/09/25 09:25:19;;;;;;;6.32;1.50;;;;;;;;;;5038619;28;20037;-83
2022/09/25 09:28:04;;;;;;;7.20;2.17;;;;;;;13.56;90.96;68274.81;5050479;28;20049;-84
2022/09/25 09:30:36;;;;;;;7.65;1.73;;;;;;;13.47;88.19;68262.47;5039447;28;20477;-84
2022/09/25 09:33:23;;;;;;;7.85;2.40;;;;;;;13.54;89.92;68272.53;5044927;28;20045;-84
2022/09/25 09:36:06;;;;;;;5.88;1.80;;;;;;;13.64;89.68;68280.66;5035507;28;20037;-84
2022/09/25 09:38:46;;;;;;;6.68;2.10;;;;;;;;;;5049184;28;20504;-84
2022/09/25 09:41:32;;;;;;;6.15;2.30;;;;;;;13.65;90.51;68282.34;5041873;28;20045;-84
2022/09/25 09:44:28;;;;;;;5.60;1.52;;;;;;;13.74;88.44;68294.69;5053685;28;20045;-83
2022/09/25 09:47:27;;;;;;;5.07;1.20;;;;;;;13.74;87.02;68300.63;5041159;28;20048;-84
2022/09/25 09:50:01;;;;;;;6.53;1.60;;;;;;;13.90;88.15;68312.34;5045942;28;20049;-85
2022/09/25 09:52:38;;;;;;;4.13;1.17;;;;;;;14.07;87.56;68341.81;5049969;28;20047;-84
2022/09/25 09:55:25;;;;;;;4.45;1.17;;;;;;;13.89;82.73;68311.75;5044558;28;20115;-85
2022/09/25 09:57:53;;;;;;;6.32;1.10;;;;;;;14.10;83.64;68335.09;5039094;28;20044;-84
2022/09/25 10:00:21;;;;;;;4.27;1.00;;;;;;;14.08;82.68;68329.59;5062907;28;20579;-84
2022/09/25 10:02:55;;;;;;;6.15;1.00;;;;;;;;;;5048123;28;20283;-84
2022/09/25 10:05:40;;;;;;;3.63;0.98;;;;;;;14.22;82.37;68346.06;5045096;28;20514;-84
2022/09/25 10:08:07;;;;;;;3.55;1.02;;;;;;;;;;5036995;28;20061;-84
2022/09/25 10:10:34;;;;;;;4.60;1.25;;;;;;;14.39;80.17;68364.28;5046196;28;20049;-84
2022/09/25 10:13:05;;;;;;;9.25;1.88;;;;;;;14.48;82.13;68377.22;5042974;28;20108;-85
2022/09/25 10:15:39;;;;;;;5.75;1.10;;;;;;;14.57;81.44;68387.47;5050882;28;20036;-84
2022/09/25 10:18:06;;;;;;;5.13;1.30;;;;;;;14.38;82.34;68363.72;5035717;28;20627;-85
2022/09/25 10:20:43;;;;;;;4.57;1.40;;;;;;;14.32;80.54;68359.00;5055814;28;20083;-85
2022/09/25 10:23:36;;;;;;;2.75;1.10;;;;;;;14.23;79.67;68355.25;5058157;28;20487;-85
2022/09/25 10:26:02;;;;;;;4.43;1.10;;;;;;;14.12;80.01;68331.44;5043428;28;20048;-85
2022/09/25 10:28:33;;;;;;;4.80;1.00;;;;;;;14.09;80.43;68333.38;5057966;28;20594;-85
2022/09/25 10:31:00;;;;;;;4.85;1.20;;;;;;;14.06;80.31;68330.53;5046725;28;20037;-85
2022/09/25 10:33:28;;;;;;;6.68;1.80;;;;;;;14.09;80.80;68339.31;5050993;28;20071;-85
2022/09/25 10:35:53;;;;;;;5.53;1.60;;;;;;;14.12;82.20;68334.69;5062443;28;20446;-85
2022/09/25 10:38:37;;;;;;;5.50;1.10;;;;;;;14.10;80.44;68334.53;5030536;28;20277;-84
2022/09/25 10:41:13;;;;;;;5.32;1.05;;;;;;;14.13;79.99;68337.94;5027948;28;20049;-85
2022/09/25 10:43:52;;;;;;;4.43;1.92;;;;;;;;;;5030704;28;20041;-85
2022/09/25 10:50:09;;;;;;;8.57;1.90;;;;;;;14.52;81.65;68381.78;5043606;28;20065;-85
2022/09/25 10:52:06;;;;;;;8.13;1.70;;;;;;;14.97;76.80;68428.63;5051270;28;20532;-85
2022/09/25 10:54:32;;;;;;;4.90;1.00;;;;;;;14.76;73.81;68408.53;5059120;28;20045;-85
2022/09/25 10:56:58;;;;;;;4.93;0.93;;;;;;;14.77;76.10;68409.13;5045551;28;20040;-85
2022/09/25 10:59:24;;;;;;;3.42;1.08;;;;;;;14.94;74.54;68428.47;5049167;28;20116;-85
2022/09/25 11:01:53;;;;;;;4.15;0.90;;;;;;;15.06;74.71;68442.13;5049246;28;20511;-85
2022/09/25 11:04:27;;;;;;;3.75;1.15;;;;;;;15.20;70.85;68456.94;5045735;28;20044;-85
2022/09/25 11:06:57;;;;;;;2.78;0.77;;;;;;;15.36;74.73;68475.16;5049288;28;20672;-85
2022/09/25 11:09:28;;;;;;;3.08;0.57;;;;;;;15.38;71.40;68482.81;5047170;28;20049;-85
2022/09/25 11:12:14;;;;;;;4.63;0.68;;;;;;;15.22;72.52;68453.84;5047299;28;20049;-85
2022/09/25 11:14:54;;;;;;;3.55;0.80;;;;;;;15.00;73.92;68432.63;5063365;28;20703;-85
2022/09/25 11:17:32;;;;;;;2.63;0.90;;;;;;;14.89;72.34;68422.78;5047538;28;20103;-85
2022/09/25 11:20:17;;;;;;;2.60;0.60;;;;;;;14.86;74.39;68419.34;5044477;28;20560;-85
2022/09/25 11:23:04;;;;;;;4.22;1.17;;;;;;;15.17;72.66;68453.53;5048638;28;20037;-85
2022/09/25 11:26:06;;;;;;;2.92;1.00;;;;;;;15.30;71.65;68468.31;5066127;28;20116;-85
2022/09/25 11:28:36;;;;;;;3.75;0.80;;;;;;;;;;5051313;28;20041;-85
2022/09/25 11:31:14;;;;;;;1.75;0.70;;;;;;;15.32;72.16;68470.59;5048811;28;20713;-85
2022/09/25 11:33:54;;;;;;;2.47;0.50;;;;;;;15.41;70.27;68480.28;5047858;28;20048;-85
2022/09/25 11:36:28;;;;;;;3.72;0.45;;;;;;;15.24;68.91;68458.81;5047401;28;20102;-85
2022/09/25 11:42:02;;;;;;;3.53;0.85;;;;;;;15.69;70.78;68512.22;5044256;28;20048;-85
2022/09/25 11:45:08;;;;;;;4.23;0.70;;;;;;;15.71;70.17;68513.94;5045571;28;20694;-85
2022/09/25 11:47:39;;;;;;;3.15;0.70;;;;;;;15.50;70.21;68491.09;5000527;28;20044;-85
2022/09/25 11:50:14;;;;;;;7.00;0.90;;;;;;;15.32;67.92;68467.91;5044710;28;20037;-85
2022/09/25 11:52:56;;;;;;;2.92;0.85;;;;;;;15.44;69.75;68489.63;5042990;28;20707;-85
2022/09/25 11:55:25;;;;;;;3.40;0.73;;;;;;;;;;5051261;28;20565;-85
2022/09/25 11:58:00;;;;;;;3.85;0.70;;;;;;;15.87;66.08;68531.59;5033635;28;20042;-85
2022/09/25 12:00:51;;;;;;;3.33;0.82;;;;;;;15.82;65.29;68526.44;5043190;28;20761;-85
2022/09/25 12:03:34;;;;;;;4.20;0.88;;;;;;;15.76;64.25;68516.94;5040375;28;20048;-85
2022/09/25 12:06:24;;;;;;;4.45;0.80;;;;;;;16.01;66.97;68545.41;5047684;28;20539;-85
2022/09/25 12:09:10;;;;;;;6.22;1.05;;;;;;;16.09;67.39;68556.09;5046544;28;20052;-85
2022/09/25 12:11:44;;;;;;;2.13;0.40;;;;;;;16.31;66.48;68575.22;5061665;28;20051;-85
2022/09/25 12:14:10;;;;;;;3.00;0.50;;;;;;;16.52;66.19;68598.59;5040537;28;20132;-85
2022/09/25 12:16:47;;;;;;;2.20;0.60;;;;;;;16.75;68.38;68626.94;5031158;28;20486;-85
2022/09/25 12:19:27;;;;;;;3.58;0.60;;;;;;;17.04;65.50;68659.47;5051438;28;20813;-85
2022/09/25 12:22:17;;;;;;;3.17;0.63;;;;;;;17.11;66.12;68665.31;5046889;28;20036;-85
2022/09/25 12:24:57;;;;;;;2.72;0.70;;;;;;;16.99;64.00;68657.00;5029091;28;20045;-85
2022/09/25 12:27:51;;;;;;;2.40;0.60;;;;;;;17.11;65.49;68668.00;5048806;28;20572;-85
2022/09/25 12:30:54;;;;;;;3.50;0.63;;;;;;;17.29;62.44;68690.66;4992076;28;20153;-85
2022/09/25 12:33:40;;;;;;;3.08;0.50;;;;;;;17.03;64.75;68655.63;5014240;28;20119;-85
2022/09/25 12:36:34;;;;;;;3.60;1.02;;;;;;;16.98;62.77;68655.31;5042683;28;20041;-85
2022/09/25 12:39:24;;;;;;;3.00;0.75;;;;;;;16.90;65.29;68647.31;5052498;28;20114;-85
2022/09/25 12:41:54;;;;;;;2.85;0.50;;;;;;;16.58;62.59;68610.81;5046889;28;20132;-85
2022/09/25 12:44:26;;;;;;;3.33;0.85;;;;;;;16.52;63.36;68603.97;5038810;28;20496;-85
2022/09/25 12:47:00;;;;;;;4.25;0.77;;;;;;;16.90;66.36;68647.31;5060443;28;20049;-85